Time;durP1;ratioP1;P1;durP2;ratioP2;P2;SDS_P1;SDS_P2;PMS_P1;PMS_P2;Temp;Humidity;BMP_temperature;BMP_pressure;BME280_temperature;BME280_humidity;BME280_pressure;Samples;Min_cycle;Max_cycle;Signal;HPM_P1;HPM_P2
2021/05/18 00:00:46;;;;;;;4.65;3.95;;;;;;;16.88;70.95;98081.16;5094439;28;20390;-77
2021/05/18 00:03:14;;;;;;;5.95;3.92;;;;;;;16.90;71.30;98068.09;5092839;28;20455;-77
2021/05/18 00:05:42;;;;;;;4.20;3.80;;;;;;;16.92;71.29;98065.09;5094095;28;20455;-81
2021/05/18 00:08:10;;;;;;;4.68;3.95;;;;;;;16.86;71.30;98071.84;5093196;28;20016;-79
2021/05/18 00:13:25;;;;;;;4.15;3.80;;;;;;;16.86;71.97;98088.03;5093906;28;20035;-79
2021/05/18 00:15:54;;;;;;;4.28;3.88;;;;;;;16.85;71.61;98089.16;5092779;28;20028;-79
2021/05/18 00:18:21;;;;;;;4.93;4.15;;;;;;;16.86;71.63;98093.44;5092568;28;20026;-83
2021/05/18 00:20:47;;;;;;;6.38;4.45;;;;;;;16.88;71.85;98091.16;5092854;28;20028;-84
2021/05/18 00:23:13;;;;;;;5.53;4.40;;;;;;;16.85;71.83;98089.94;5092326;28;20050;-82
2021/05/18 00:25:39;;;;;;;4.40;3.70;;;;;;;16.82;72.04;98079.81;5092323;28;20048;-78
2021/05/18 00:28:05;;;;;;;5.43;4.40;;;;;;;16.71;72.74;98078.69;5092510;28;20475;-83
2021/05/18 00:30:31;;;;;;;5.10;4.40;;;;;;;16.64;73.40;98068.50;5092210;28;20035;-78
2021/05/18 00:32:57;;;;;;;7.63;5.22;;;;;;;16.56;73.25;98059.38;5092140;28;20020;-79
2021/05/18 00:35:22;;;;;;;5.10;4.60;;;;;;;16.54;73.09;98055.44;5090809;28;20084;-75
2021/05/18 00:37:48;;;;;;;8.95;4.60;;;;;;;16.52;73.40;98052.31;5093564;28;20020;-77
2021/05/18 00:40:16;;;;;;;5.90;4.45;;;;;;;16.53;73.18;98048.47;5093295;28;20094;-78
2021/05/18 00:42:49;;;;;;;;;;;;;;;16.54;73.36;98047.34;5092621;28;20016;-76
2021/05/18 00:45:16;;;;;;;4.75;4.22;;;;;;;16.54;73.54;98052.75;5091983;28;19911;-81
2021/05/18 00:47:42;;;;;;;7.30;5.30;;;;;;;16.55;73.52;98055.13;5092231;28;20024;-79
2021/05/18 00:50:08;;;;;;;7.75;4.72;;;;;;;16.57;73.34;98079.06;5092325;28;20161;-81
2021/05/18 00:52:33;;;;;;;6.90;5.20;;;;;;;16.59;73.46;98079.53;5091814;28;20031;-79
2021/05/18 00:55:07;;;;;;;6.25;5.40;;;;;;;16.61;73.35;98078.06;5092066;28;20027;-81
2021/05/18 01:00:19;;;;;;;7.10;5.05;;;;;;;16.63;73.64;98083.88;5092747;28;20030;-81
2021/05/18 01:02:48;;;;;;;5.45;4.95;;;;;;;16.63;73.08;98077.72;5091794;28;20111;-79
2021/05/18 01:05:20;;;;;;;7.05;3.72;;;;;;;16.63;73.42;98066.91;5091791;28;20360;-78
2021/05/18 01:07:47;;;;;;;6.05;5.45;;;;;;;16.62;73.35;98060.75;5091779;28;20036;-79
2021/05/18 01:10:14;;;;;;;6.78;5.00;;;;;;;16.61;72.92;98052.97;5091722;28;20070;-75
2021/05/18 01:12:40;;;;;;;6.68;5.68;;;;;;;16.65;73.16;98070.84;5092980;28;20050;-83
2021/05/18 01:15:07;;;;;;;5.82;4.40;;;;;;;16.65;72.57;98080.88;5091809;28;20024;-80
2021/05/18 01:17:32;;;;;;;7.05;5.35;;;;;;;16.66;72.73;98090.50;5091702;28;20035;-78
2021/05/18 01:20:07;;;;;;;5.35;4.85;;;;;;;16.62;73.07;98092.34;5091706;28;20016;-80
2021/05/18 01:22:33;;;;;;;5.90;5.18;;;;;;;16.62;72.99;98092.34;5091254;28;20020;-78
2021/05/18 01:24:58;;;;;;;4.88;4.30;;;;;;;16.60;73.32;98087.28;5091109;28;20044;-78
2021/05/18 01:27:23;;;;;;;5.18;4.68;;;;;;;16.53;73.24;98088.97;5093050;28;20043;-82
2021/05/18 01:29:49;;;;;;;6.50;4.40;;;;;;;16.47;73.84;98097.28;5091488;28;20020;-81
2021/05/18 01:32:18;;;;;;;3.75;3.20;;;;;;;16.47;73.72;98113.47;5091185;28;20393;-78
2021/05/18 01:34:44;;;;;;;4.63;3.20;;;;;;;16.44;74.48;98122.25;5091376;28;20479;-78
2021/05/18 01:37:09;;;;;;;3.17;2.88;;;;;;;16.43;74.88;98119.88;5091348;28;20031;-78
2021/05/18 01:39:51;;;;;;;3.47;2.60;;;;;;;16.43;74.61;98119.88;5091056;28;20019;-77
2021/05/18 01:45:07;;;;;;;3.13;2.83;;;;;;;16.47;75.03;98132.38;5092617;28;20061;-80
2021/05/18 01:47:32;;;;;;;3.60;3.00;;;;;;;16.48;75.27;98136.66;5090677;28;20020;-79
2021/05/18 01:49:58;;;;;;;3.40;3.13;;;;;;;16.52;75.42;98142.16;5091044;28;20031;-80
2021/05/18 01:52:23;;;;;;;5.40;4.20;;;;;;;16.54;75.55;98160.72;5090913;28;20078;-80
2021/05/18 01:54:50;;;;;;;5.25;3.75;;;;;;;16.58;75.09;98167.03;5090993;28;20023;-80
2021/05/18 01:57:20;;;;;;;4.72;4.32;;;;;;;16.60;74.98;98178.25;5090762;28;20051;-80
2021/05/18 01:59:48;;;;;;;5.15;4.40;;;;;;;16.60;74.64;98170.97;5090906;28;20026;-81
2021/05/18 02:02:15;;;;;;;6.05;4.45;;;;;;;16.56;75.08;98158.47;5091111;28;20028;-80
2021/05/18 02:04:50;;;;;;;7.13;3.90;;;;;;;16.49;75.58;98151.72;5090977;28;20035;-80
2021/05/18 02:07:22;;;;;;;5.60;4.38;;;;;;;16.47;76.29;98156.66;5092206;28;20020;-80
2021/05/18 02:09:47;;;;;;;6.03;5.38;;;;;;;16.46;77.05;98163.19;5089866;28;20024;-82
2021/05/18 02:12:15;;;;;;;8.98;6.18;;;;;;;16.48;77.46;98162.84;5089664;28;20023;-78
2021/05/18 02:14:43;;;;;;;8.07;5.55;;;;;;;16.45;77.97;98169.72;5091498;28;20016;-79
2021/05/18 02:25:19;;;;;;;7.68;5.72;;;;;;;16.20;79.38;98179.69;5091909;28;20044;-77
2021/05/18 02:27:45;;;;;;;5.75;5.18;;;;;;;16.17;79.26;98193.81;5090612;28;20020;-77
2021/05/18 02:30:13;;;;;;;5.65;5.13;;;;;;;16.16;79.85;98208.44;5090532;28;20106;-78
2021/05/18 02:32:39;;;;;;;4.68;4.28;;;;;;;16.11;80.00;98198.66;5090022;28;20036;-80
2021/05/18 02:35:08;;;;;;;7.97;5.05;;;;;;;16.12;80.18;98199.44;5090236;28;20414;-77
2021/05/18 02:37:37;;;;;;;6.80;4.60;;;;;;;16.13;79.79;98185.63;5091302;28;20019;-81
2021/05/18 02:40:05;;;;;;;5.65;4.95;;;;;;;16.14;80.38;98192.59;5089971;28;20604;-76
2021/05/18 02:42:30;;;;;;;6.50;5.00;;;;;;;16.15;80.41;98186.06;5091059;28;20028;-77
2021/05/18 02:50:06;;;;;;;5.60;4.40;;;;;;;16.24;80.29;98177.09;5091034;28;20132;-76
2021/05/18 02:52:32;;;;;;;6.82;3.97;;;;;;;16.22;80.64;98168.56;5089596;28;20483;-76
2021/05/18 02:54:58;;;;;;;5.72;5.18;;;;;;;16.22;80.73;98196.34;5089929;28;20032;-78
2021/05/18 02:57:38;;;;;;;4.53;4.13;;;;;;;16.22;80.69;98192.84;5090917;28;20528;-78
2021/05/18 03:00:10;;;;;;;8.48;6.20;;;;;;;16.17;80.87;98191.94;5089703;28;20020;-77
2021/05/18 03:02:35;;;;;;;8.07;6.05;;;;;;;16.18;80.71;98184.63;5090465;28;20313;-77
2021/05/18 03:05:02;;;;;;;6.93;5.13;;;;;;;16.13;80.85;98191.00;5089439;28;20305;-76
2021/05/18 03:07:28;;;;;;;4.68;3.92;;;;;;;16.14;81.36;98202.59;5090777;28;20055;-78
2021/05/18 03:09:53;;;;;;;4.70;3.70;;;;;;;16.13;81.53;98215.28;5090825;28;20073;-77
2021/05/18 03:12:19;;;;;;;4.15;3.35;;;;;;;16.13;81.51;98234.16;5091055;28;20027;-76
2021/05/18 03:14:44;;;;;;;4.03;3.70;;;;;;;16.12;81.43;98234.50;5091139;28;20386;-77
2021/05/18 03:17:09;;;;;;;4.28;3.88;;;;;;;16.11;81.71;98239.13;5090744;28;20028;-77
2021/05/18 03:19:35;;;;;;;6.82;5.45;;;;;;;16.10;81.69;98231.34;5089614;28;20059;-77
2021/05/18 03:22:00;;;;;;;4.80;3.80;;;;;;;16.09;81.77;98241.34;5089963;28;20390;-77
2021/05/18 03:24:26;;;;;;;4.15;3.67;;;;;;;16.05;82.11;98253.94;5089464;28;20032;-79
2021/05/18 03:26:51;;;;;;;7.47;6.07;;;;;;;16.05;82.03;98248.53;5092010;28;20462;-77
2021/05/18 03:29:32;;;;;;;6.38;5.20;;;;;;;16.06;81.89;98257.41;5091731;28;20027;-77
2021/05/18 03:34:42;;;;;;;6.93;4.63;;;;;;;16.07;82.08;98248.97;5090821;28;20659;-77
2021/05/18 03:37:18;;;;;;;5.47;4.38;;;;;;;16.04;82.30;98246.97;5089571;28;20044;-77
2021/05/18 03:39:45;;;;;;;6.78;4.30;;;;;;;16.06;82.27;98243.94;5088983;28;20054;-76
2021/05/18 03:42:21;;;;;;;6.90;5.00;;;;;;;16.03;82.67;98247.28;5090987;28;20035;-75
2021/05/18 03:53:38;;;;;;;5.18;4.30;;;;;;;16.13;82.50;98241.47;5090159;28;20426;-76
2021/05/18 04:23:19;;;;;;;8.30;5.95;;;;;;;16.66;80.97;98276.78;5113673;28;20023;-76
2021/05/18 05:00:15;;;;;;;3.72;2.20;;;;;;;23.71;57.70;98284.84;5093228;28;20081;-79
2021/05/18 05:16:02;;;;;;;2.30;1.33;;;;;;;24.05;46.25;98276.41;5092632;28;20061;-77
2021/05/18 05:18:28;;;;;;;0.98;0.88;;;;;;;23.93;46.51;98280.28;5091413;28;20020;-77
2021/05/18 05:20:53;;;;;;;1.63;1.00;;;;;;;23.93;47.17;98281.03;5092048;28;20024;-77
2021/05/18 05:23:19;;;;;;;1.65;1.10;;;;;;;23.95;48.12;98283.41;5091196;28;20031;-77
2021/05/18 05:25:44;;;;;;;1.20;1.10;;;;;;;24.14;48.55;98277.63;5092038;28;20043;-77
2021/05/18 05:28:10;;;;;;;3.03;1.13;;;;;;;24.10;47.35;98271.34;5091195;28;20385;-77
2021/05/18 05:30:35;;;;;;;2.65;1.08;;;;;;;24.04;46.91;98272.13;5107836;28;20024;-77
2021/05/18 05:33:01;;;;;;;1.42;1.15;;;;;;;23.86;47.07;98272.00;5092474;28;20024;-77
2021/05/18 05:35:26;;;;;;;1.00;1.00;;;;;;;23.55;46.78;98269.53;5091047;28;20073;-76
2021/05/18 05:37:54;;;;;;;1.38;1.10;;;;;;;23.24;47.51;98279.09;5107626;28;20114;-76
2021/05/18 05:40:19;;;;;;;1.85;1.00;;;;;;;22.94;48.42;98283.53;5092688;28;20032;-77
2021/05/18 05:42:45;;;;;;;2.30;0.73;;;;;;;22.57;48.05;98278.16;5090736;28;20024;-77
2021/05/18 05:45:11;;;;;;;3.85;0.90;;;;;;;22.32;48.20;98267.78;5092333;28;20030;-77
2021/05/18 05:47:36;;;;;;;2.60;1.50;;;;;;;22.09;48.92;98259.75;5091876;28;20043;-76
2021/05/18 05:50:02;;;;;;;1.13;1.02;;;;;;;21.88;49.44;98256.41;5092162;28;20085;-76
2021/05/18 05:52:28;;;;;;;0.95;0.82;;;;;;;21.73;49.83;98265.56;5092179;28;20104;-76
2021/05/18 05:54:53;;;;;;;1.60;1.08;;;;;;;21.41;49.31;98263.97;5091810;28;20051;-76
2021/05/18 05:57:19;;;;;;;5.75;1.75;;;;;;;21.20;50.25;98266.38;5092090;28;20445;-76
2021/05/18 05:59:46;;;;;;;2.72;0.95;;;;;;;21.01;50.82;98270.75;5091524;28;20055;-76
2021/05/18 06:02:12;;;;;;;4.45;1.45;;;;;;;20.83;51.38;98270.47;5090633;28;20058;-77
2021/05/18 06:04:38;;;;;;;1.35;1.00;;;;;;;20.57;52.55;98273.91;5091456;28;20106;-77
2021/05/18 06:07:03;;;;;;;1.50;1.20;;;;;;;20.40;53.25;98273.22;5091647;28;20016;-77
2021/05/18 06:09:29;;;;;;;5.85;1.27;;;;;;;20.23;54.17;98270.97;5092893;28;20034;-77
2021/05/18 06:47:02;;;;;;;3.67;2.05;;;;;;;18.93;57.36;98323.19;5090865;28;20505;-77
2021/05/18 06:49:27;;;;;;;3.67;1.95;;;;;;;18.82;56.98;98319.38;5091671;28;20099;-77
2021/05/18 06:51:54;;;;;;;5.07;2.53;;;;;;;18.67;56.61;98313.59;5089930;28;20031;-77
2021/05/18 06:54:20;;;;;;;5.97;2.13;;;;;;;18.59;56.58;98317.25;5091441;28;20494;-77
2021/05/18 06:56:49;;;;;;;2.28;2.10;;;;;;;18.52;56.87;98306.25;5089691;28;20027;-76
2021/05/18 07:01:43;;;;;;;5.32;3.97;;;;;;;18.33;55.94;98304.97;5090801;28;20461;-77
2021/05/18 07:04:09;;;;;;;3.20;2.63;;;;;;;18.24;55.96;98302.41;5090824;28;20112;-77
2021/05/18 07:09:07;;;;;;;4.05;2.63;;;;;;;18.17;55.50;98306.84;5091615;28;20398;-77
2021/05/18 07:11:32;;;;;;;3.38;2.45;;;;;;;18.14;56.22;98308.34;5090813;28;20119;-79
2021/05/18 07:13:58;;;;;;;2.22;2.10;;;;;;;18.15;56.27;98312.63;5090903;28;20028;-77
2021/05/18 07:16:24;;;;;;;4.35;2.22;;;;;;;18.18;56.09;98311.13;5090697;28;20031;-77
2021/05/18 07:18:50;;;;;;;5.47;2.45;;;;;;;18.24;55.88;98307.06;5089441;28;20024;-77
2021/05/18 07:21:17;;;;;;;3.10;2.80;;;;;;;18.26;56.20;98302.09;5090041;28;20016;-77
2021/05/18 07:23:43;;;;;;;4.35;2.65;;;;;;;18.29;55.86;98306.03;5089456;28;20111;-77
2021/05/18 07:26:08;;;;;;;4.72;1.90;;;;;;;18.42;56.09;98301.31;5089363;28;20047;-77
2021/05/18 07:28:35;;;;;;;2.47;2.28;;;;;;;18.47;55.61;98310.00;5089173;28;20012;-77
2021/05/18 07:31:03;;;;;;;8.20;4.22;;;;;;;18.60;55.79;98305.28;5089695;28;20034;-76
2021/05/18 07:33:30;;;;;;;3.95;2.30;;;;;;;18.79;55.47;98318.16;5089151;28;20028;-77
2021/05/18 07:35:57;;;;;;;2.60;2.17;;;;;;;18.93;54.71;98325.88;5089241;28;20126;-78
2021/05/18 07:38:27;;;;;;;3.50;1.95;;;;;;;19.12;54.71;98324.41;5091340;28;20023;-78
2021/05/18 07:40:56;;;;;;;2.00;1.85;;;;;;;19.25;53.38;98319.66;5089772;28;20409;-78
2021/05/18 07:43:22;;;;;;;2.47;2.20;;;;;;;19.31;52.94;98319.03;5090653;28;20016;-78
2021/05/18 07:45:56;;;;;;;8.63;2.30;;;;;;;19.42;52.91;98319.28;5093612;28;20130;-78
2021/05/18 08:07:20;;;;;;;2.03;1.45;;;;;;;19.58;49.75;98299.47;5093972;28;20027;-77
2021/05/18 08:09:50;;;;;;;1.40;1.30;;;;;;;19.56;49.65;98307.97;5093899;28;20536;-77
2021/05/18 08:12:16;;;;;;;1.88;1.25;;;;;;;19.55;49.35;98324.59;5092965;28;20035;-77
2021/05/18 08:14:49;;;;;;;4.75;1.73;;;;;;;19.54;49.47;98334.66;5092639;28;20016;-76
2021/05/18 08:47:46;;;;;;;2.55;1.40;;;;;;;20.71;46.16;98355.63;5093510;28;20082;-78
2021/05/18 10:36:02;;;;;;;6.93;0.95;;;;;;;22.47;38.65;98372.25;5091294;28;20039;-76
2021/05/18 10:38:38;;;;;;;5.47;1.08;;;;;;;22.52;38.68;98371.91;5091783;28;20404;-77
2021/05/18 10:41:06;;;;;;;0.80;0.80;;;;;;;22.52;37.67;98361.81;5090926;28;20382;-76
2021/05/18 10:43:36;;;;;;;1.02;0.95;;;;;;;22.59;38.40;98352.91;5091414;28;20027;-77
2021/05/18 10:46:06;;;;;;;0.90;0.73;;;;;;;22.61;37.44;98345.16;5091589;28;20035;-76
2021/05/18 10:48:35;;;;;;;0.88;0.80;;;;;;;22.67;37.36;98329.25;5090039;28;20020;-77
2021/05/18 10:51:26;;;;;;;0.85;0.52;;;;;;;22.68;35.21;98347.19;5090230;28;20065;-78
2021/05/18 10:54:14;;;;;;;2.22;1.23;;;;;;;22.66;35.06;98338.59;5090868;28;20572;-76
2021/05/18 10:59:34;;;;;;;6.15;1.23;;;;;;;22.73;34.97;98346.03;5091276;28;20498;-78
2021/05/18 11:02:32;;;;;;;0.75;0.50;;;;;;;22.68;33.81;98334.34;5091427;28;20107;-77
2021/05/18 11:05:12;;;;;;;1.60;0.50;;;;;;;22.58;34.04;98342.41;5091121;28;20482;-78
2021/05/18 11:07:43;;;;;;;1.10;0.70;;;;;;;22.52;33.65;98333.75;5090738;28;20455;-78
2021/05/18 11:10:16;;;;;;;2.42;0.60;;;;;;;22.37;34.92;98346.44;5090912;28;20440;-77
2021/05/18 11:12:52;;;;;;;3.60;0.52;;;;;;;22.17;34.15;98340.38;5089372;28;20455;-77
2021/05/18 11:15:20;;;;;;;0.65;0.65;;;;;;;22.04;34.46;98351.47;5089850;28;20463;-77
2021/05/18 11:17:52;;;;;;;;;;;;;;;21.96;34.57;98347.13;5091694;28;20078;-78
2021/05/18 11:21:07;;;;;;;0.60;0.60;;;;;;;21.88;35.02;98346.22;5093249;28;20065;-75
2021/05/18 11:23:23;;;;;;;0.73;0.70;;;;;;;21.79;35.06;98345.72;5091832;28;20036;-77
2021/05/18 11:26:11;;;;;;;0.52;0.50;;;;;;;21.69;34.90;98352.59;5093219;28;20499;-77
2021/05/18 11:28:44;;;;;;;2.42;0.80;;;;;;;21.63;35.64;98354.06;5094902;28;20020;-77
2021/05/18 11:31:19;;;;;;;0.65;0.65;;;;;;;21.61;36.63;98350.91;5094958;28;20479;-77
2021/05/18 11:33:53;;;;;;;1.13;0.68;;;;;;;21.74;37.28;98356.94;5094838;28;20530;-77
2021/05/18 11:36:29;;;;;;;2.42;0.73;;;;;;;21.88;36.55;98353.63;5094955;28;20032;-75
2021/05/18 11:38:57;;;;;;;2.50;0.80;;;;;;;21.95;35.38;98363.81;5094565;28;20016;-78
2021/05/18 11:41:27;;;;;;;0.60;0.60;;;;;;;22.02;36.40;98347.56;5094868;28;20455;-78
2021/05/18 11:43:58;;;;;;;2.15;0.63;;;;;;;22.15;36.81;98348.13;5094294;28;20024;-77
2021/05/18 11:46:26;;;;;;;0.85;0.77;;;;;;;22.23;36.99;98349.78;5094591;28;20294;-78
2021/05/18 11:48:56;;;;;;;0.93;0.85;;;;;;;22.37;38.24;98351.88;5094559;28;20097;-78
2021/05/18 11:51:23;;;;;;;4.47;0.70;;;;;;;22.45;37.07;98352.75;5094589;28;20031;-78
2021/05/18 11:53:53;;;;;;;4.30;1.83;;;;;;;22.55;36.68;98352.09;5093125;28;20097;-78
2021/05/18 11:56:21;;;;;;;0.60;0.60;;;;;;;22.62;35.63;98341.28;5094691;28;20020;-77
2021/05/18 11:58:47;;;;;;;1.95;0.57;;;;;;;22.63;34.64;98350.22;5094366;28;20028;-78
2021/05/18 12:01:13;;;;;;;3.50;0.57;;;;;;;22.60;34.12;98351.75;5093162;28;20024;-77
2021/05/18 12:03:39;;;;;;;1.25;0.70;;;;;;;22.51;34.37;98346.63;5092685;28;20023;-77
2021/05/18 12:06:07;;;;;;;1.55;0.50;;;;;;;22.43;34.33;98341.47;5093996;28;20024;-77
2021/05/18 12:08:35;;;;;;;5.13;0.60;;;;;;;22.33;35.20;98345.63;5092654;28;20131;-78
2021/05/18 12:11:11;;;;;;;0.85;0.70;;;;;;;22.21;35.33;98339.25;5094436;28;20410;-77
2021/05/18 12:13:37;;;;;;;0.80;0.80;;;;;;;22.14;35.31;98352.78;5093949;28;20020;-77
2021/05/18 12:16:09;;;;;;;2.90;0.73;;;;;;;22.12;36.37;98346.94;5092632;28;20027;-78
2021/05/18 12:18:37;;;;;;;1.05;0.75;;;;;;;22.14;35.51;98352.78;5092498;28;20024;-78
2021/05/18 12:21:27;;;;;;;2.63;0.95;;;;;;;22.23;37.09;98350.56;5094095;28;20099;-78
2021/05/18 12:24:15;;;;;;;1.63;0.70;;;;;;;22.36;36.54;98342.13;5085766;28;20028;-77
2021/05/18 12:26:47;;;;;;;1.42;0.60;;;;;;;22.46;35.96;98349.69;5091924;28;20040;-77
2021/05/18 12:29:37;;;;;;;0.85;0.40;;;;;;;22.55;36.39;98338.47;5093860;28;20016;-77
2021/05/18 12:32:18;;;;;;;3.35;0.80;;;;;;;22.69;36.83;98338.63;5092249;28;20035;-77
2021/05/18 12:34:45;;;;;;;2.30;0.73;;;;;;;22.73;36.02;98333.22;5093237;28;20089;-77
2021/05/18 12:37:12;;;;;;;;;;;;;;;22.84;34.55;98339.53;5094055;28;20051;-77
2021/05/18 12:39:42;;;;;;;0.68;0.68;;;;;;;22.86;35.40;98347.34;5093829;28;19937;-78
2021/05/18 12:42:09;;;;;;;2.80;0.85;;;;;;;22.89;35.80;98343.06;5093478;28;20028;-78
2021/05/18 12:44:54;;;;;;;1.52;0.60;;;;;;;22.91;34.52;98349.75;5093377;28;20024;-77
2021/05/18 12:47:30;;;;;;;2.63;0.82;;;;;;;22.85;35.38;98335.66;5093616;28;20451;-77
2021/05/18 12:49:57;;;;;;;0.93;0.60;;;;;;;22.87;34.51;98340.72;5092008;28;20023;-77
2021/05/18 12:52:22;;;;;;;0.60;0.60;;;;;;;22.89;34.71;98330.25;5092097;28;20023;-76
2021/05/18 12:54:49;;;;;;;1.50;0.90;;;;;;;22.89;33.96;98330.25;5091981;28;20035;-76
2021/05/18 12:57:18;;;;;;;0.43;0.43;;;;;;;22.87;33.07;98318.91;5091916;28;20016;-77
2021/05/18 13:00:05;;;;;;;0.98;0.65;;;;;;;22.88;31.63;98312.31;5091720;28;20023;-77
2021/05/18 13:02:40;;;;;;;0.37;0.37;;;;;;;22.92;29.85;98315.06;5093619;28;20151;-76
2021/05/18 13:05:08;;;;;;;4.30;0.57;;;;;;;22.90;29.58;98315.44;5093188;28;20262;-76
2021/05/18 13:07:33;;;;;;;4.05;0.47;;;;;;;22.92;28.23;98306.88;5092857;28;20028;-77
2021/05/18 13:10:19;;;;;;;1.60;0.50;;;;;;;22.92;27.83;98320.53;5091558;28;20142;-76
2021/05/18 13:12:45;;;;;;;1.92;0.75;;;;;;;22.86;26.94;98315.41;5092742;28;20463;-77
2021/05/18 13:15:19;;;;;;;1.55;0.63;;;;;;;22.93;27.32;98322.09;5091713;28;20027;-77
2021/05/18 13:17:59;;;;;;;1.95;1.75;;;;;;;22.96;27.22;98324.84;5092863;28;20023;-77
2021/05/18 13:20:34;;;;;;;1.63;0.73;;;;;;;22.95;27.15;98327.94;5092804;28;20020;-77
2021/05/18 13:23:02;;;;;;;3.83;0.60;;;;;;;23.02;27.06;98333.44;5091145;28;20368;-77
2021/05/18 13:28:12;;;;;;;1.52;0.30;;;;;;;23.06;26.88;98328.03;5092786;28;20137;-77
2021/05/18 13:30:38;;;;;;;4.45;2.20;;;;;;;23.07;26.23;98337.78;5092661;28;20020;-76
2021/05/18 13:33:07;;;;;;;4.90;2.50;;;;;;;23.09;27.05;98341.69;5091366;28;20043;-77
2021/05/18 13:35:34;;;;;;;0.40;0.40;;;;;;;23.09;27.08;98349.88;5092472;28;20028;-76
2021/05/18 13:38:01;;;;;;;0.30;0.30;;;;;;;23.09;26.54;98336.22;5090665;28;20498;-77
2021/05/18 13:40:27;;;;;;;0.57;0.40;;;;;;;23.11;27.11;98344.06;5092689;28;20024;-77
2021/05/18 13:42:54;;;;;;;1.48;0.30;;;;;;;23.09;27.28;98346.38;5091956;28;20016;-77
2021/05/18 13:45:22;;;;;;;2.20;0.30;;;;;;;23.07;27.20;98346.75;5091129;28;20024;-77
2021/05/18 13:47:50;;;;;;;1.65;0.38;;;;;;;23.09;26.88;98338.19;5091757;28;20020;-77
2021/05/18 13:50:16;;;;;;;1.15;0.60;;;;;;;23.05;26.88;98338.16;5091920;28;20099;-77
2021/05/18 13:52:41;;;;;;;0.50;0.47;;;;;;;23.06;27.64;98350.63;5090600;28;20124;-77
2021/05/18 13:55:08;;;;;;;1.70;0.50;;;;;;;23.05;27.93;98345.56;5092497;28;20030;-77
2021/05/18 13:57:34;;;;;;;0.80;0.40;;;;;;;23.04;27.28;98347.50;5090467;28;20027;-77
2021/05/18 14:00:00;;;;;;;0.65;0.30;;;;;;;23.04;27.68;98361.13;5090335;28;20024;-77
2021/05/18 14:02:25;;;;;;;0.73;0.40;;;;;;;23.03;27.79;98346.72;5092079;28;20344;-77
2021/05/18 14:04:51;;;;;;;0.40;0.22;;;;;;;23.01;26.32;98359.16;5090369;28;20023;-77
2021/05/18 14:08:17;;;;;;;1.50;0.28;;;;;;;22.99;26.63;98353.31;5090685;28;20045;-77
2021/05/18 14:10:30;;;;;;;1.48;0.68;;;;;;;22.95;26.29;98360.66;5090874;28;20032;-76
2021/05/18 14:12:55;;;;;;;4.13;0.77;;;;;;;22.94;26.36;98346.25;5089850;28;20027;-77
2021/05/18 14:15:20;;;;;;;1.42;0.30;;;;;;;22.96;26.63;98354.03;5091402;28;20032;-77
2021/05/18 14:17:46;;;;;;;0.35;0.35;;;;;;;22.99;27.18;98358.75;5090135;28;20125;-77
2021/05/18 14:20:12;;;;;;;1.85;0.60;;;;;;;23.01;25.91;98351.00;5090430;28;20084;-77
2021/05/18 14:22:38;;;;;;;2.83;0.40;;;;;;;23.02;25.09;98356.06;5091752;28;20020;-76
2021/05/18 14:27:30;;;;;;;0.55;0.30;;;;;;;22.94;23.52;98361.84;5091644;28;20020;-77
2021/05/18 14:29:56;;;;;;;0.50;0.50;;;;;;;22.95;23.70;98357.91;5091247;28;20102;-76
2021/05/18 14:32:21;;;;;;;0.70;0.35;;;;;;;22.89;24.29;98362.16;5091468;28;20050;-76
2021/05/18 14:34:47;;;;;;;0.80;0.28;;;;;;;22.89;24.17;98367.59;5090228;28;20387;-76
2021/05/18 14:37:13;;;;;;;0.30;0.30;;;;;;;22.85;24.27;98362.13;5090332;28;20471;-77
2021/05/18 14:45:18;;;;;;;0.20;0.20;;;;;;;22.83;24.27;98376.13;5048638;28;20047;-77
2021/05/18 14:55:50;;;;;;;3.20;0.30;;;;;;;22.76;25.51;98397.09;5090409;28;20073;-76
2021/05/18 14:58:16;;;;;;;0.32;0.32;;;;;;;22.76;25.49;98397.88;5091687;28;20020;-77
2021/05/18 15:00:42;;;;;;;0.30;0.30;;;;;;;22.75;25.45;98396.28;5089717;28;20091;-77
2021/05/18 15:03:09;;;;;;;0.15;0.13;;;;;;;22.79;25.61;98404.50;5089897;28;20020;-76
2021/05/18 15:05:35;;;;;;;0.43;0.40;;;;;;;22.76;25.24;98397.09;5090935;28;20386;-76
2021/05/18 15:08:01;;;;;;;0.43;0.30;;;;;;;22.75;25.67;98395.53;5090894;28;20031;-76
2021/05/18 15:10:28;;;;;;;0.35;0.20;;;;;;;22.67;25.50;98390.00;5090842;28;20391;-76
2021/05/18 15:12:56;;;;;;;0.43;0.40;;;;;;;22.62;25.17;98393.06;5091036;28;20031;-78
2021/05/18 15:15:22;;;;;;;0.70;0.25;;;;;;;22.58;25.72;98389.50;5089832;28;20228;-80
2021/05/18 15:17:50;;;;;;;3.20;1.15;;;;;;;22.56;26.00;98391.81;5089781;28;20273;-83
2021/05/18 15:20:16;;;;;;;;;;;;;;;22.54;26.20;98394.13;5090209;28;20027;-82
2021/05/18 15:22:41;;;;;;;1.08;0.82;;;;;;;22.51;26.79;98397.63;5089507;28;19904;-74
2021/05/18 15:25:08;;;;;;;1.20;1.10;;;;;;;22.48;27.08;98401.06;5091373;28;20119;-80
2021/05/18 15:27:34;;;;;;;1.25;0.25;;;;;;;22.44;27.58;98409.19;5090645;28;20027;-76
2021/05/18 15:30:00;;;;;;;0.60;0.32;;;;;;;22.44;28.23;98417.38;5096015;28;20027;-77
2021/05/18 15:32:25;;;;;;;1.13;0.40;;;;;;;22.37;28.87;98404.44;5109589;28;20151;-79
2021/05/18 15:34:51;;;;;;;0.70;0.70;;;;;;;22.31;29.72;98413.28;5109127;28;20063;-79
2021/05/18 15:37:17;;;;;;;1.20;0.88;;;;;;;22.27;31.01;98420.63;5110247;28;20024;-81
2021/05/18 15:39:43;;;;;;;0.40;0.40;;;;;;;22.25;31.50;98417.50;5109521;28;20019;-80
2021/05/18 15:42:10;;;;;;;2.38;1.17;;;;;;;22.15;31.63;98432.53;5109837;28;20080;-84
2021/05/18 15:44:35;;;;;;;2.15;0.98;;;;;;;22.06;32.36;98428.16;5109502;28;20034;-81
2021/05/18 15:47:03;;;;;;;2.45;0.52;;;;;;;21.96;32.21;98417.91;5110400;28;20028;-82
2021/05/18 15:49:29;;;;;;;5.72;0.85;;;;;;;21.90;32.46;98425.59;5110787;28;20032;-86
2021/05/18 15:51:56;;;;;;;2.10;0.70;;;;;;;21.86;32.47;98432.94;5109096;28;20024;-83
2021/05/18 15:54:22;;;;;;;4.72;0.77;;;;;;;21.81;33.02;98435.94;5109949;28;20062;-81
2021/05/18 15:56:48;;;;;;;0.55;0.28;;;;;;;21.75;32.79;98445.56;5109545;28;20470;-79
2021/05/18 15:59:14;;;;;;;0.47;0.47;;;;;;;21.68;32.90;98446.25;5109608;28;20028;-81
2021/05/18 16:01:39;;;;;;;0.40;0.40;;;;;;;21.62;33.03;98442.28;5109464;28;20020;-86
2021/05/18 16:04:09;;;;;;;0.25;0.25;;;;;;;21.59;33.43;98443.81;5110285;28;20024;-85
2021/05/18 16:06:39;;;;;;;2.38;0.80;;;;;;;21.55;32.65;98444.84;5113596;28;20454;-85
2021/05/18 16:09:05;;;;;;;1.73;0.50;;;;;;;21.52;32.50;98435.50;5113313;28;20031;-82
2021/05/18 16:11:31;;;;;;;2.25;0.30;;;;;;;21.52;32.39;98437.41;5112841;28;20024;-78
2021/05/18 16:13:57;;;;;;;0.50;0.30;;;;;;;21.47;32.31;98430.38;5112951;28;20470;-78
2021/05/18 16:16:23;;;;;;;1.20;0.60;;;;;;;21.48;32.54;98431.13;5113290;28;20024;-79
2021/05/18 16:18:48;;;;;;;4.20;0.40;;;;;;;21.44;33.03;98433.81;5114169;27;20020;-78
2021/05/18 16:21:18;;;;;;;1.42;0.75;;;;;;;21.39;32.50;98431.41;5113158;28;20462;-78
2021/05/18 16:23:47;;;;;;;1.85;0.90;;;;;;;21.37;32.72;98437.19;5114241;28;20022;-78
2021/05/18 16:26:13;;;;;;;0.85;0.45;;;;;;;21.33;32.98;98438.28;5112733;28;20395;-78
2021/05/18 16:28:39;;;;;;;0.73;0.40;;;;;;;21.28;32.68;98450.25;5114321;28;20025;-80
2021/05/18 16:31:07;;;;;;;0.90;0.40;;;;;;;21.23;33.04;98445.88;5112596;28;20187;-79
2021/05/18 16:33:34;;;;;;;1.40;0.40;;;;;;;21.17;32.46;98443.84;5114094;28;20024;-78
2021/05/18 16:36:00;;;;;;;0.52;0.50;;;;;;;21.14;32.30;98450.00;5112631;28;20036;-79
2021/05/18 16:38:26;;;;;;;0.93;0.55;;;;;;;21.07;31.91;98454.16;5112569;28;20144;-79
2021/05/18 16:40:53;;;;;;;0.20;0.20;;;;;;;21.05;32.17;98459.16;5113902;28;20064;-79
2021/05/18 16:43:22;;;;;;;1.07;0.33;;;;;;;21.02;32.22;98462.59;5114170;28;20448;-80
2021/05/18 16:45:52;;;;;;;0.38;0.25;;;;;;;20.98;32.42;98455.53;5112484;28;20379;-80
2021/05/18 16:48:18;;;;;;;2.78;0.50;;;;;;;20.95;32.38;98457.03;5113852;28;20145;-79
2021/05/18 16:50:44;;;;;;;0.45;0.10;;;;;;;20.91;32.56;98456.16;5112603;28;20132;-79
2021/05/18 16:53:10;;;;;;;2.17;1.45;;;;;;;20.90;32.97;98462.78;5112319;28;20378;-79
2021/05/18 16:55:37;;;;;;;2.00;0.80;;;;;;;20.89;32.80;98458.47;5112405;28;20019;-80
2021/05/18 16:58:03;;;;;;;1.38;1.08;;;;;;;20.86;32.91;98472.78;5112175;28;20085;-77
2021/05/18 17:00:28;;;;;;;1.52;0.70;;;;;;;20.81;32.63;98465.69;5113813;28;20421;-79
2021/05/18 17:02:54;;;;;;;0.63;0.50;;;;;;;20.77;32.21;98467.56;5111901;28;20028;-79
2021/05/18 17:05:20;;;;;;;0.40;0.28;;;;;;;20.72;31.14;98463.19;5112262;28;20024;-77